createdAt,value
2022-12-18T00:00:29.254Z,-4.02
2022-12-18T00:01:36.319Z,-4.00
2022-12-18T00:02:39.264Z,-4.05
2022-12-18T00:03:43.920Z,-3.97
2022-12-18T00:04:47.343Z,-4.02
2022-12-18T00:05:53.626Z,-4.05
2022-12-18T00:06:56.692Z,-4.05
2022-12-18T00:07:59.977Z,-4.05
2022-12-18T00:09:05.384Z,-4.04
2022-12-18T00:10:09.263Z,-4.08
2022-12-18T00:11:14.614Z,-4.12
2022-12-18T00:13:21.187Z,-4.15
2022-12-18T00:14:24.191Z,-4.15
2022-12-18T00:15:27.080Z,-4.09
2022-12-18T00:16:32.162Z,-4.09
2022-12-18T00:17:35.157Z,-4.04
2022-12-18T00:18:38.661Z,-4.07
2022-12-18T00:19:41.814Z,-4.09
2022-12-18T00:20:44.681Z,-4.04
2022-12-18T00:21:47.754Z,-4.02
2022-12-18T00:22:50.610Z,-3.90
2022-12-18T00:23:53.991Z,-3.90
2022-12-18T00:24:56.807Z,-3.82
2022-12-18T00:26:05.513Z,-3.78
2022-12-18T00:27:08.587Z,-3.80
2022-12-18T00:28:11.813Z,-3.86
2022-12-18T00:29:15.560Z,-3.75
2022-12-18T00:30:18.550Z,-3.76
2022-12-18T00:31:25.227Z,-3.82
2022-12-18T00:32:28.170Z,-3.84
2022-12-18T00:33:31.562Z,-3.88
2022-12-18T00:34:34.471Z,-3.91
2022-12-18T00:35:37.407Z,-3.86
2022-12-18T00:36:41.970Z,-3.88
2022-12-18T00:37:45.164Z,-3.83
2022-12-18T00:38:48.970Z,-3.85
2022-12-18T00:39:51.809Z,-3.79
2022-12-18T00:40:54.691Z,-3.82
2022-12-18T00:42:16.088Z,-3.86
2022-12-18T00:43:19.111Z,-3.87
2022-12-18T00:44:22.033Z,-3.88
2022-12-18T00:45:26.758Z,-3.89
2022-12-18T00:46:29.777Z,-3.87
2022-12-18T00:47:32.755Z,-3.90
2022-12-18T00:48:35.755Z,-3.92
2022-12-18T00:49:38.769Z,-4.04
2022-12-18T00:50:41.832Z,-4.08
2022-12-18T00:51:45.073Z,-4.06
2022-12-18T00:52:48.122Z,-4.08
2022-12-18T00:53:51.357Z,-4.04
2022-12-18T00:54:54.216Z,-3.94
2022-12-18T00:55:57.213Z,-3.99
2022-12-18T00:57:00.684Z,-4.04
2022-12-18T00:58:03.701Z,-4.13
2022-12-18T00:59:06.613Z,-4.17
2022-12-18T01:00:14.159Z,-4.15
2022-12-18T01:01:18.257Z,-4.27
2022-12-18T01:02:21.591Z,-4.36
2022-12-18T01:03:24.732Z,-4.46
2022-12-18T01:04:27.847Z,-4.54
2022-12-18T01:05:30.946Z,-4.55
2022-12-18T01:06:34.189Z,-4.59
2022-12-18T01:07:37.256Z,-4.63
2022-12-18T01:08:40.664Z,-4.69
2022-12-18T01:09:43.632Z,-4.75
2022-12-18T01:10:46.693Z,-4.80
2022-12-18T01:11:49.930Z,-4.85
2022-12-18T01:12:53.338Z,-4.87
2022-12-18T01:13:56.449Z,-4.88
2022-12-18T01:14:59.559Z,-4.88
2022-12-18T01:16:02.465Z,-4.92
2022-12-18T01:17:06.147Z,-4.95
2022-12-18T01:18:09.299Z,-4.97
2022-12-18T01:19:12.416Z,-4.99
2022-12-18T01:20:15.546Z,-4.97
2022-12-18T01:21:18.435Z,-5.01
2022-12-18T01:22:21.463Z,-5.05
2022-12-18T01:23:24.554Z,-4.96
2022-12-18T01:24:27.474Z,-4.94
2022-12-18T01:25:30.513Z,-4.96
2022-12-18T01:26:34.020Z,-4.94
2022-12-18T01:27:37.013Z,-4.99
2022-12-18T01:28:41.097Z,-5.00
2022-12-18T01:29:44.255Z,-4.98
2022-12-18T01:30:47.113Z,-4.95
2022-12-18T01:31:50.600Z,-5.06
2022-12-18T01:32:53.473Z,-5.13
2022-12-18T01:33:57.561Z,-5.15
2022-12-18T01:35:00.459Z,-5.18
2022-12-18T01:36:03.783Z,-5.19
2022-12-18T01:37:07.187Z,-5.22
2022-12-18T01:38:10.517Z,-5.22
2022-12-18T01:39:15.117Z,-5.26
2022-12-18T01:40:18.259Z,-5.26
2022-12-18T01:41:25.858Z,-5.23
2022-12-18T01:42:28.823Z,-5.27
2022-12-18T01:43:51.720Z,-5.29
2022-12-18T01:45:13.062Z,-5.31
2022-12-18T01:46:16.435Z,-5.31
2022-12-18T01:47:31.792Z,-5.34
2022-12-18T01:48:34.959Z,-5.35
2022-12-18T01:49:37.824Z,-5.37
2022-12-18T01:50:44.316Z,-5.35
2022-12-18T01:51:47.479Z,-5.29
2022-12-18T01:52:57.053Z,-5.31
2022-12-18T01:54:00.851Z,-5.33
2022-12-18T01:55:06.400Z,-5.32
2022-12-18T01:56:13.081Z,-5.28
2022-12-18T01:57:16.507Z,-5.23
2022-12-18T01:58:21.406Z,-5.22
2022-12-18T01:59:24.483Z,-5.24
2022-12-18T02:00:28.530Z,-5.26
2022-12-18T02:01:34.292Z,-5.20
2022-12-18T02:02:37.794Z,-5.10
2022-12-18T02:03:44.216Z,-4.99
2022-12-18T02:04:49.550Z,-4.95
2022-12-18T02:06:02.617Z,-4.98
2022-12-18T02:07:24.701Z,-5.03
2022-12-18T02:08:47.696Z,-5.05
2022-12-18T02:10:31.179Z,-5.01
2022-12-18T02:11:52.507Z,-5.01
2022-12-18T02:13:08.656Z,-4.97
2022-12-18T02:14:24.514Z,-5.03
2022-12-18T02:15:47.677Z,-5.08
2022-12-18T02:17:05.280Z,-5.10
2022-12-18T02:18:22.818Z,-5.17
2022-12-18T02:19:46.189Z,-5.21
2022-12-18T02:21:29.863Z,-5.17
2022-12-18T02:23:10.151Z,-5.13
2022-12-18T02:24:28.860Z,-5.15
2022-12-18T02:26:07.702Z,-5.17
2022-12-18T02:27:12.121Z,-5.18
2022-12-18T02:28:19.906Z,-5.14
2022-12-18T02:29:31.119Z,-5.13
2022-12-18T02:30:37.383Z,-5.14
2022-12-18T02:31:46.763Z,-5.18
2022-12-18T02:32:53.749Z,-5.26
2022-12-18T02:34:00.282Z,-5.33
2022-12-18T02:35:06.925Z,-5.37
2022-12-18T02:36:13.765Z,-5.39
2022-12-18T02:37:20.304Z,-5.41
2022-12-18T02:38:26.517Z,-5.43
2022-12-18T02:39:32.187Z,-5.45
2022-12-18T02:40:37.431Z,-5.47
2022-12-18T02:41:40.960Z,-5.47
2022-12-18T02:42:44.165Z,-5.53
2022-12-18T02:43:51.031Z,-5.54
2022-12-18T02:44:53.935Z,-5.58
2022-12-18T02:46:02.529Z,-5.59
2022-12-18T02:47:05.631Z,-5.60
2022-12-18T02:48:09.442Z,-5.61
2022-12-18T02:49:38.184Z,-5.65
2022-12-18T02:50:49.997Z,-5.67
2022-12-18T02:52:06.881Z,-5.70
2022-12-18T02:53:40.076Z,-5.73
2022-12-18T02:54:57.505Z,-5.78
2022-12-18T02:56:06.746Z,-5.77
2022-12-18T02:57:59.885Z,-5.78
2022-12-18T02:59:07.560Z,-5.76
2022-12-18T03:00:24.441Z,-5.80
2022-12-18T03:01:35.219Z,-5.81
2022-12-18T03:02:50.411Z,-5.71
2022-12-18T03:03:56.814Z,-5.69
2022-12-18T03:05:17.962Z,-5.65
2022-12-18T03:06:31.940Z,-5.62
2022-12-18T03:07:59.321Z,-5.65
2022-12-18T03:09:17.369Z,-5.63
2022-12-18T03:10:27.481Z,-5.63
2022-12-18T03:11:58.135Z,-5.62
2022-12-18T03:13:16.338Z,-5.62
2022-12-18T03:14:23.183Z,-5.58
2022-12-18T03:15:32.424Z,-5.60
2022-12-18T03:16:37.331Z,-5.61
2022-12-18T03:17:46.123Z,-5.65
2022-12-18T03:18:55.347Z,-5.69
2022-12-18T03:20:03.638Z,-5.67
2022-12-18T03:21:11.373Z,-5.69
2022-12-18T03:22:16.911Z,-5.74
2022-12-18T03:23:26.686Z,-5.70
2022-12-18T03:24:32.758Z,-5.65
2022-12-18T03:25:42.078Z,-5.69
2022-12-18T03:26:48.119Z,-5.73
2022-12-18T03:27:58.051Z,-5.74
2022-12-18T03:29:39.610Z,-5.77
2022-12-18T03:30:45.691Z,-5.77
2022-12-18T03:31:57.229Z,-5.79
2022-12-18T03:33:14.648Z,-5.73
2022-12-18T03:34:25.172Z,-5.68
2022-12-18T03:35:33.969Z,-5.69
2022-12-18T03:36:37.141Z,-5.78
2022-12-18T03:37:40.420Z,-5.81
2022-12-18T03:38:43.820Z,-5.82
2022-12-18T03:39:46.835Z,-5.83
2022-12-18T03:41:27.550Z,-5.84
2022-12-18T03:42:52.767Z,-5.80
2022-12-18T03:44:21.152Z,-5.80
2022-12-18T03:45:35.855Z,-5.81
2022-12-18T03:47:07.630Z,-5.79
2022-12-18T03:48:33.159Z,-5.79
2022-12-18T03:49:46.354Z,-5.77
2022-12-18T03:51:06.573Z,-5.74
2022-12-18T03:52:25.628Z,-5.72
2022-12-18T03:53:50.379Z,-5.74
2022-12-18T03:54:56.349Z,-5.77
2022-12-18T03:56:02.177Z,-5.78
2022-12-18T03:57:16.371Z,-5.83
2022-12-18T03:58:25.023Z,-5.89
2022-12-18T03:59:30.330Z,-5.90
2022-12-18T04:00:34.366Z,-5.94
2022-12-18T04:01:43.213Z,-5.97
2022-12-18T04:02:53.618Z,-5.95
2022-12-18T04:03:58.111Z,-5.91
2022-12-18T04:05:06.270Z,-5.91
2022-12-18T04:06:10.195Z,-5.90
2022-12-18T04:07:14.722Z,-5.87
2022-12-18T04:08:18.153Z,-5.91
2022-12-18T04:09:22.363Z,-5.94
2022-12-18T04:10:25.700Z,-5.95
2022-12-18T04:11:28.799Z,-5.92
2022-12-18T04:12:31.962Z,-5.93
2022-12-18T04:13:37.721Z,-5.92
2022-12-18T04:14:41.161Z,-5.96
2022-12-18T04:15:43.985Z,-6.00
2022-12-18T04:16:47.006Z,-6.04
2022-12-18T04:17:51.148Z,-6.05
2022-12-18T04:18:55.158Z,-6.05
2022-12-18T04:19:58.115Z,-6.04
2022-12-18T04:21:01.097Z,-6.06
2022-12-18T04:22:04.172Z,-6.03
2022-12-18T04:23:07.300Z,-6.05
2022-12-18T04:24:10.203Z,-6.06
2022-12-18T04:25:14.058Z,-6.08
2022-12-18T04:26:17.104Z,-6.10
2022-12-18T04:27:21.019Z,-6.10
2022-12-18T04:28:24.240Z,-6.09
2022-12-18T04:29:27.269Z,-6.09
2022-12-18T04:30:30.202Z,-6.11
2022-12-18T04:31:33.239Z,-6.14
2022-12-18T04:32:36.771Z,-6.14
2022-12-18T04:33:40.133Z,-6.13
2022-12-18T04:34:43.295Z,-6.10
2022-12-18T04:35:46.339Z,-6.12
2022-12-18T04:36:49.420Z,-6.14
2022-12-18T04:37:52.398Z,-6.13
2022-12-18T04:38:55.443Z,-6.11
2022-12-18T04:39:58.386Z,-6.12
2022-12-18T04:41:01.310Z,-6.11
2022-12-18T04:42:04.303Z,-6.08
2022-12-18T04:43:07.256Z,-6.05
2022-12-18T04:44:10.269Z,-6.05
2022-12-18T04:45:13.269Z,-6.02
2022-12-18T04:46:16.241Z,-6.03
2022-12-18T04:47:19.488Z,-6.05
2022-12-18T04:48:22.612Z,-6.07
2022-12-18T04:49:25.804Z,-6.14
2022-12-18T04:50:29.292Z,-6.19
2022-12-18T04:51:32.311Z,-6.24
2022-12-18T04:52:35.321Z,-6.25
2022-12-18T04:53:38.593Z,-6.25
2022-12-18T04:54:41.794Z,-6.28
2022-12-18T04:55:44.839Z,-6.27
2022-12-18T04:56:48.418Z,-6.29
2022-12-18T04:57:51.416Z,-6.32
2022-12-18T04:58:54.520Z,-6.28
2022-12-18T04:59:57.519Z,-6.25
2022-12-18T05:01:00.604Z,-6.25
2022-12-18T05:02:03.661Z,-6.25
2022-12-18T05:03:06.684Z,-6.24
2022-12-18T05:04:09.995Z,-6.19
2022-12-18T05:05:13.043Z,-6.20
2022-12-18T05:06:16.256Z,-6.21
2022-12-18T05:07:19.335Z,-6.24
2022-12-18T05:08:22.618Z,-6.29
2022-12-18T05:09:25.699Z,-6.32
2022-12-18T05:10:31.223Z,-6.34
2022-12-18T05:11:39.218Z,-6.36
2022-12-18T05:13:00.071Z,-6.39
2022-12-18T05:14:04.700Z,-6.41
2022-12-18T05:15:08.331Z,-6.43
2022-12-18T05:16:12.111Z,-6.38
2022-12-18T05:17:15.402Z,-6.35
2022-12-18T05:18:18.532Z,-6.40
2022-12-18T05:19:21.531Z,-6.40
2022-12-18T05:20:24.916Z,-6.42
2022-12-18T05:21:27.934Z,-6.35
2022-12-18T05:22:30.886Z,-6.35
2022-12-18T05:23:37.937Z,-6.32
2022-12-18T05:24:41.112Z,-6.33
2022-12-18T05:25:49.703Z,-6.35
2022-12-18T05:26:53.140Z,-6.36
2022-12-18T05:27:56.097Z,-6.34
2022-12-18T05:28:59.731Z,-6.35
2022-12-18T05:30:02.612Z,-6.33
2022-12-18T05:31:06.190Z,-6.33
2022-12-18T05:32:09.143Z,-6.32
2022-12-18T05:33:12.373Z,-6.30
2022-12-18T05:34:15.500Z,-6.32
2022-12-18T05:35:18.683Z,-6.33
2022-12-18T05:36:21.819Z,-6.29
2022-12-18T05:37:24.854Z,-6.27
2022-12-18T05:38:28.668Z,-6.25
2022-12-18T05:39:31.936Z,-6.22
2022-12-18T05:40:34.761Z,-6.23
2022-12-18T05:41:37.716Z,-6.23
2022-12-18T05:42:40.860Z,-6.17
2022-12-18T05:43:44.724Z,-6.11
2022-12-18T05:44:47.737Z,-6.15
2022-12-18T05:45:51.401Z,-6.12
2022-12-18T05:46:54.621Z,-6.17
2022-12-18T05:47:57.645Z,-6.19
2022-12-18T05:49:02.431Z,-6.16
2022-12-18T05:50:06.032Z,-6.16
2022-12-18T05:51:11.742Z,-6.14
2022-12-18T05:52:14.751Z,-6.18
2022-12-18T05:53:20.628Z,-6.21
2022-12-18T05:54:23.500Z,-6.26
2022-12-18T05:55:27.441Z,-6.24
2022-12-18T05:56:30.355Z,-6.26
2022-12-18T05:57:33.579Z,-6.20
2022-12-18T05:58:37.021Z,-6.19
2022-12-18T05:59:40.067Z,-6.23
2022-12-18T06:00:46.349Z,-6.24
2022-12-18T06:01:49.815Z,-6.27
2022-12-18T06:02:52.991Z,-6.27
2022-12-18T06:03:56.996Z,-6.27
2022-12-18T06:04:59.905Z,-6.20
2022-12-18T06:06:03.418Z,-6.19
2022-12-18T06:07:06.580Z,-6.21
2022-12-18T06:08:10.296Z,-6.22
2022-12-18T06:09:13.415Z,-6.16
2022-12-18T06:10:16.574Z,-6.13
2022-12-18T06:11:23.106Z,-6.13
2022-12-18T06:12:26.143Z,-6.15
2022-12-18T06:13:29.138Z,-6.15
2022-12-18T06:14:31.936Z,-6.13
2022-12-18T06:15:38.217Z,-6.11
2022-12-18T06:16:41.618Z,-6.16
2022-12-18T06:17:44.581Z,-6.21
2022-12-18T06:18:48.163Z,-6.23
2022-12-18T06:19:51.155Z,-6.22
2022-12-18T06:20:58.249Z,-6.20
2022-12-18T06:22:01.103Z,-6.21
2022-12-18T06:23:04.732Z,-6.19
2022-12-18T06:24:07.958Z,-6.15
2022-12-18T06:25:10.998Z,-6.17
2022-12-18T06:26:14.897Z,-6.19
2022-12-18T06:27:18.161Z,-6.20
2022-12-18T06:28:21.097Z,-6.21
2022-12-18T06:29:27.100Z,-6.23
2022-12-18T06:30:30.044Z,-6.22
2022-12-18T06:31:33.181Z,-6.25
2022-12-18T06:32:36.294Z,-6.23
2022-12-18T06:33:40.420Z,-6.24
2022-12-18T06:34:43.614Z,-6.22
2022-12-18T06:35:47.097Z,-6.19
2022-12-18T06:36:50.375Z,-6.17
2022-12-18T06:37:53.486Z,-6.18
2022-12-18T06:38:58.534Z,-6.19
2022-12-18T06:40:02.289Z,-6.21
2022-12-18T06:41:13.604Z,-6.20
2022-12-18T06:42:16.562Z,-6.12
2022-12-18T06:43:19.671Z,-6.16
2022-12-18T06:44:22.947Z,-6.15
2022-12-18T06:45:26.100Z,-6.13
2022-12-18T06:46:29.375Z,-6.08
2022-12-18T06:47:32.479Z,-6.09
2022-12-18T06:48:35.970Z,-6.10
2022-12-18T06:49:38.910Z,-6.11
2022-12-18T06:50:44.478Z,-6.13
2022-12-18T06:51:47.808Z,-6.13
2022-12-18T06:52:51.813Z,-6.13
2022-12-18T06:53:54.682Z,-6.11
2022-12-18T06:54:57.695Z,-6.12
2022-12-18T06:56:09.489Z,-6.12
2022-12-18T06:57:13.500Z,-6.06
2022-12-18T06:58:16.726Z,-6.05
2022-12-18T06:59:19.715Z,-6.07
2022-12-18T07:00:22.769Z,-6.09
2022-12-18T07:01:26.157Z,-6.08
2022-12-18T07:02:29.458Z,-6.05
2022-12-18T07:03:32.562Z,-6.03
2022-12-18T07:04:35.494Z,-6.03
2022-12-18T07:05:42.379Z,-6.04
2022-12-18T07:06:45.300Z,-6.04
2022-12-18T07:07:48.295Z,-6.02
2022-12-18T07:08:52.492Z,-6.00
2022-12-18T07:09:55.896Z,-5.95
2022-12-18T07:10:58.897Z,-5.88
2022-12-18T07:12:01.893Z,-5.89
2022-12-18T07:13:04.887Z,-5.91
2022-12-18T07:14:07.714Z,-5.88
2022-12-18T07:15:11.231Z,-5.85
2022-12-18T07:16:24.779Z,-5.84
2022-12-18T07:17:28.611Z,-5.87
2022-12-18T07:18:31.642Z,-5.88
2022-12-18T07:19:35.578Z,-5.90
2022-12-18T07:20:38.825Z,-5.90
2022-12-18T07:21:46.411Z,-5.87
2022-12-18T07:22:54.733Z,-5.86
2022-12-18T07:23:59.076Z,-5.86
2022-12-18T07:25:02.037Z,-5.84
2022-12-18T07:26:10.232Z,-5.82
2022-12-18T07:27:13.243Z,-5.81
2022-12-18T07:28:17.638Z,-5.80
2022-12-18T07:29:21.029Z,-5.79
2022-12-18T07:30:23.940Z,-5.78
2022-12-18T07:31:28.377Z,-5.75
2022-12-18T07:32:31.863Z,-5.71
2022-12-18T07:33:35.707Z,-5.70
2022-12-18T07:34:38.700Z,-5.70
2022-12-18T07:35:41.574Z,-5.69
2022-12-18T07:36:44.860Z,-5.70
2022-12-18T07:37:48.020Z,-5.67
2022-12-18T07:38:52.819Z,-5.64
2022-12-18T07:39:56.020Z,-5.60
2022-12-18T07:41:06.529Z,-5.58
2022-12-18T07:42:28.210Z,-5.60
2022-12-18T07:43:31.216Z,-5.58
2022-12-18T07:44:34.455Z,-5.56
2022-12-18T07:45:37.634Z,-5.58
2022-12-18T07:46:41.291Z,-5.58
2022-12-18T07:47:44.477Z,-5.53
2022-12-18T07:48:50.000Z,-5.47
2022-12-18T07:49:53.336Z,-5.45
2022-12-18T07:51:03.962Z,-5.42
2022-12-18T07:52:06.937Z,-5.40
2022-12-18T07:53:10.252Z,-5.38
2022-12-18T07:54:13.123Z,-5.36
2022-12-18T07:55:16.276Z,-5.34
2022-12-18T07:56:28.640Z,-5.28
2022-12-18T07:58:56.646Z,-5.23
2022-12-18T07:59:59.589Z,-5.19
2022-12-18T08:01:10.924Z,-5.16
2022-12-18T08:02:14.643Z,-5.14
2022-12-18T08:03:17.933Z,-5.11
2022-12-18T08:04:20.771Z,-5.10
2022-12-18T08:05:23.868Z,-5.08
2022-12-18T08:06:27.026Z,-5.05
2022-12-18T08:07:30.517Z,-5.03
2022-12-18T08:08:35.687Z,-5.01
2022-12-18T08:09:38.581Z,-4.97
2022-12-18T08:10:41.347Z,-4.92
2022-12-18T08:11:44.976Z,-4.90
2022-12-18T08:12:52.067Z,-4.89
2022-12-18T08:13:55.240Z,-4.86
2022-12-18T08:14:58.285Z,-4.79
2022-12-18T08:16:04.451Z,-4.73
2022-12-18T08:17:07.420Z,-4.67
2022-12-18T08:18:14.250Z,-4.64
2022-12-18T08:19:17.414Z,-4.60
2022-12-18T08:20:20.422Z,-4.54
2022-12-18T08:21:27.434Z,-4.47
2022-12-18T08:22:30.484Z,-4.44
2022-12-18T08:23:35.938Z,-4.36
2022-12-18T08:24:42.414Z,-4.32
2022-12-18T08:25:45.395Z,-4.30
2022-12-18T08:27:06.777Z,-4.29
2022-12-18T08:28:11.731Z,-4.25
2022-12-18T08:29:19.960Z,-4.19
2022-12-18T08:30:24.674Z,-4.14
2022-12-18T08:31:29.663Z,-4.12
2022-12-18T08:32:34.207Z,-4.06
2022-12-18T08:33:39.208Z,-4.02
2022-12-18T08:34:42.443Z,-4.00
2022-12-18T08:35:46.171Z,-3.96
2022-12-18T08:36:49.203Z,-3.96
2022-12-18T08:37:52.302Z,-3.92
2022-12-18T08:38:55.635Z,-3.88
2022-12-18T08:39:58.670Z,-3.80
2022-12-18T08:41:08.033Z,-3.77
2022-12-18T08:42:30.031Z,-3.76
2022-12-18T08:43:51.571Z,-3.72
2022-12-18T08:44:54.480Z,-3.63
2022-12-18T08:45:58.279Z,-3.58
2022-12-18T08:47:01.230Z,-3.54
2022-12-18T08:48:04.522Z,-3.49
2022-12-18T08:49:09.005Z,-3.42
2022-12-18T08:50:13.535Z,-3.39
2022-12-18T08:51:21.111Z,-3.36
2022-12-18T08:52:24.134Z,-3.29
2022-12-18T08:53:34.068Z,-3.23
2022-12-18T08:54:38.424Z,-3.20
2022-12-18T08:55:45.729Z,-3.16
2022-12-18T08:56:52.040Z,-3.12
2022-12-18T08:57:55.382Z,-3.06
2022-12-18T08:58:58.964Z,-3.02
2022-12-18T09:00:02.569Z,-2.97
2022-12-18T09:01:08.192Z,-2.94
2022-12-18T09:02:13.172Z,-2.89
2022-12-18T09:03:20.516Z,-2.89
2022-12-18T09:04:24.054Z,-2.86
2022-12-18T09:05:27.177Z,-2.80
2022-12-18T09:06:30.760Z,-2.80
2022-12-18T09:07:33.984Z,-2.78
2022-12-18T09:08:38.297Z,-2.74
2022-12-18T09:09:41.909Z,-2.73
2022-12-18T09:10:46.349Z,-2.70
2022-12-18T09:11:49.729Z,-2.64
2022-12-18T09:12:52.632Z,-2.59
2022-12-18T09:13:56.869Z,-2.56
2022-12-18T09:15:00.588Z,-2.53
2022-12-18T09:16:04.639Z,-2.52
2022-12-18T09:17:07.775Z,-2.48
2022-12-18T09:18:11.161Z,-2.45
2022-12-18T09:19:14.556Z,-2.41
2022-12-18T09:20:17.992Z,-2.36
2022-12-18T09:21:22.095Z,-2.30
2022-12-18T09:22:25.002Z,-2.21
2022-12-18T09:23:27.849Z,-2.17
2022-12-18T09:24:30.727Z,-2.17
2022-12-18T09:25:36.954Z,-2.13
2022-12-18T09:26:39.863Z,-2.11
2022-12-18T09:27:43.209Z,-2.08
2022-12-18T09:28:46.193Z,-2.05
2022-12-18T09:29:49.177Z,-2.03
2022-12-18T09:30:52.278Z,-1.99
2022-12-18T09:31:55.429Z,-1.95
2022-12-18T09:32:58.471Z,-1.90
2022-12-18T09:34:01.515Z,-1.86
2022-12-18T09:35:04.841Z,-1.79
2022-12-18T09:36:10.434Z,-1.71
2022-12-18T09:37:13.431Z,-1.65
2022-12-18T09:38:19.750Z,-1.61
2022-12-18T09:39:24.121Z,-1.52
2022-12-18T09:40:34.910Z,-1.54
2022-12-18T09:41:45.776Z,-1.48
2022-12-18T09:42:58.944Z,-1.44
2022-12-18T09:44:26.195Z,-1.42
2022-12-18T09:45:31.684Z,-1.34
2022-12-18T09:46:42.100Z,-1.25
2022-12-18T09:47:48.591Z,-1.24
2022-12-18T09:48:54.089Z,-1.19
2022-12-18T09:50:02.422Z,-1.22
2022-12-18T09:51:14.882Z,-1.20
2022-12-18T09:52:43.623Z,-1.20
2022-12-18T09:53:54.953Z,-1.20
2022-12-18T09:55:26.152Z,-1.18
2022-12-18T09:56:34.135Z,-1.16
2022-12-18T09:57:43.495Z,-1.16
2022-12-18T09:58:59.868Z,-1.16
2022-12-18T10:00:21.004Z,-1.16
2022-12-18T10:01:25.149Z,-1.03
2022-12-18T10:02:32.714Z,-0.94
2022-12-18T10:03:35.727Z,-0.94
2022-12-18T10:04:38.615Z,-0.95
2022-12-18T10:05:50.439Z,-0.92
2022-12-18T10:07:09.607Z,-0.94
2022-12-18T10:08:26.709Z,-0.99
2022-12-18T10:10:09.063Z,-0.93
2022-12-18T10:11:41.618Z,-0.89
2022-12-18T10:13:04.549Z,-0.85
2022-12-18T10:14:30.620Z,-0.69
2022-12-18T10:15:41.832Z,-0.74
2022-12-18T10:16:55.880Z,-0.68
2022-12-18T10:18:22.172Z,-0.66
2022-12-18T10:19:51.161Z,-0.64
2022-12-18T10:21:00.230Z,-0.61
2022-12-18T10:22:34.039Z,-0.60
2022-12-18T10:23:55.250Z,-0.60
2022-12-18T10:25:01.264Z,-0.60
2022-12-18T10:26:10.702Z,-0.58
2022-12-18T10:27:17.622Z,-0.57
2022-12-18T10:28:21.703Z,-0.55
2022-12-18T10:29:26.781Z,-0.56
2022-12-18T10:30:29.854Z,-0.55
2022-12-18T10:31:33.712Z,-0.54
2022-12-18T10:32:36.827Z,-0.54
2022-12-18T10:33:39.837Z,-0.53
2022-12-18T10:34:43.020Z,-0.51
2022-12-18T10:35:48.484Z,-0.45
2022-12-18T10:36:51.391Z,-0.36
2022-12-18T10:38:02.061Z,-0.29
2022-12-18T10:39:23.436Z,-0.30
2022-12-18T10:40:26.519Z,-0.32
2022-12-18T10:41:29.730Z,-0.33
2022-12-18T10:42:32.872Z,-0.30
2022-12-18T10:43:37.738Z,-0.26
2022-12-18T10:44:40.796Z,-0.25
2022-12-18T10:46:07.196Z,-0.23
2022-12-18T10:47:17.213Z,-0.08
2022-12-18T10:48:22.378Z,0.00
2022-12-18T10:49:29.234Z,-0.08
2022-12-18T10:51:09.771Z,-0.12
2022-12-18T10:52:28.772Z,-0.05
2022-12-18T10:53:34.271Z,-0.03
2022-12-18T10:54:38.188Z,0.09
2022-12-18T10:55:45.727Z,0.06
2022-12-18T10:56:49.001Z,0.10
2022-12-18T10:57:52.430Z,0.05
2022-12-18T10:59:05.928Z,0.08
2022-12-18T11:00:37.068Z,0.07
2022-12-18T11:01:57.416Z,0.08
2022-12-18T11:03:00.575Z,0.11
2022-12-18T11:04:10.230Z,0.19
2022-12-18T11:05:29.063Z,0.24
2022-12-18T11:06:32.093Z,0.20
2022-12-18T11:07:55.589Z,0.15
2022-12-18T11:09:12.198Z,0.15
2022-12-18T11:10:19.855Z,0.17
2022-12-18T11:11:24.988Z,0.17
2022-12-18T11:12:29.895Z,0.20
2022-12-18T11:13:33.300Z,0.21
2022-12-18T11:14:49.578Z,0.20
2022-12-18T11:15:53.049Z,0.24
2022-12-18T11:18:36.285Z,0.40
2022-12-18T11:19:42.536Z,0.47
2022-12-18T11:20:58.181Z,0.47
2022-12-18T11:22:04.851Z,0.51
2022-12-18T11:23:14.831Z,0.66
2022-12-18T11:24:29.610Z,0.71
2022-12-18T11:25:35.628Z,0.63
2022-12-18T11:26:40.948Z,0.61
2022-12-18T11:27:53.415Z,0.62
2022-12-18T11:29:25.119Z,0.64
2022-12-18T11:30:31.469Z,0.62
2022-12-18T11:31:34.986Z,0.63
2022-12-18T11:32:42.210Z,0.69
2022-12-18T11:34:28.120Z,0.74
2022-12-18T11:35:39.664Z,0.78
2022-12-18T11:36:49.670Z,0.78
2022-12-18T11:38:00.831Z,0.82
2022-12-18T11:39:14.019Z,0.82
2022-12-18T11:40:24.108Z,0.79
2022-12-18T11:41:53.286Z,0.75
2022-12-18T11:43:03.785Z,0.75
2022-12-18T11:44:11.233Z,0.89
2022-12-18T11:45:14.347Z,0.87
2022-12-18T11:46:39.393Z,0.89
2022-12-18T11:48:07.430Z,0.86
2022-12-18T11:49:21.630Z,0.90
2022-12-18T11:50:33.997Z,0.93
2022-12-18T11:51:44.798Z,0.92
2022-12-18T11:52:51.492Z,0.91
2022-12-18T11:53:57.360Z,0.94
2022-12-18T11:55:03.352Z,1.04
2022-12-18T11:56:16.664Z,1.12
2022-12-18T11:57:57.340Z,1.15
2022-12-18T11:59:34.041Z,1.09
2022-12-18T12:00:44.876Z,1.13
2022-12-18T12:02:23.493Z,1.08
2022-12-18T12:03:52.783Z,1.11
2022-12-18T12:05:01.360Z,1.09
2022-12-18T12:06:23.935Z,1.13
2022-12-18T12:07:47.217Z,1.27
2022-12-18T12:08:52.960Z,1.29
2022-12-18T12:10:15.402Z,1.37
2022-12-18T12:11:29.026Z,1.38
2022-12-18T12:13:00.708Z,1.32
2022-12-18T12:14:18.656Z,1.38
2022-12-18T12:15:39.103Z,1.32
2022-12-18T12:17:07.137Z,1.34
2022-12-18T12:18:19.227Z,1.44
2022-12-18T12:19:57.547Z,1.40
2022-12-18T12:21:03.547Z,1.47
2022-12-18T12:22:30.855Z,1.48
2022-12-18T12:23:57.666Z,1.49
2022-12-18T12:25:20.800Z,1.66
2022-12-18T12:26:34.939Z,1.74
2022-12-18T12:27:49.696Z,1.78
2022-12-18T12:29:10.468Z,1.81
2022-12-18T12:30:26.340Z,1.84
2022-12-18T12:31:57.267Z,1.75
2022-12-18T12:33:30.794Z,1.73
2022-12-18T12:35:17.939Z,1.69
2022-12-18T12:36:39.521Z,1.68
2022-12-18T12:37:58.495Z,1.63
2022-12-18T12:39:13.999Z,1.61
2022-12-18T12:40:51.329Z,1.59
2022-12-18T12:42:07.108Z,1.65
2022-12-18T12:43:22.031Z,1.74
2022-12-18T12:44:29.766Z,1.76
2022-12-18T12:45:40.896Z,1.70
2022-12-18T12:46:44.806Z,1.69
2022-12-18T12:47:51.505Z,1.72
2022-12-18T12:49:00.046Z,1.83
2022-12-18T12:50:08.003Z,1.93
2022-12-18T12:51:17.646Z,1.92
2022-12-18T12:52:43.672Z,1.89
2022-12-18T12:53:47.299Z,1.94
2022-12-18T12:54:51.409Z,1.86
2022-12-18T12:55:56.126Z,1.85
2022-12-18T12:57:17.740Z,1.96
2022-12-18T12:58:36.326Z,1.98
2022-12-18T12:59:57.985Z,1.99
2022-12-18T13:01:36.344Z,1.91
2022-12-18T13:02:57.726Z,1.92
2022-12-18T13:04:16.695Z,1.89
2022-12-18T13:05:35.097Z,1.88
2022-12-18T13:07:03.192Z,1.85
2022-12-18T13:08:10.717Z,1.89
2022-12-18T13:09:13.897Z,1.80
2022-12-18T13:10:27.877Z,1.72
2022-12-18T13:13:17.344Z,1.75
2022-12-18T13:14:45.174Z,1.81
2022-12-18T13:16:08.645Z,1.76
2022-12-18T13:17:21.218Z,1.77
2022-12-18T13:18:26.562Z,1.75
2022-12-18T13:19:29.822Z,1.72
2022-12-18T13:20:40.349Z,1.71
2022-12-18T13:21:43.789Z,1.74
2022-12-18T13:22:51.436Z,1.72
2022-12-18T13:23:54.928Z,1.70
2022-12-18T13:24:57.980Z,1.65
2022-12-18T13:26:07.652Z,1.66
2022-12-18T13:27:42.081Z,1.63
2022-12-18T13:28:48.242Z,1.66
2022-12-18T13:29:53.221Z,1.65
2022-12-18T13:30:58.369Z,1.62
2022-12-18T13:32:02.969Z,1.65
2022-12-18T13:33:14.952Z,1.64
2022-12-18T13:35:47.939Z,1.61
2022-12-18T13:36:52.823Z,1.65
2022-12-18T13:37:57.411Z,1.64
2022-12-18T13:39:21.249Z,1.66
2022-12-18T13:40:55.547Z,1.58
2022-12-18T13:42:07.493Z,1.50
2022-12-18T13:43:22.402Z,1.47
2022-12-18T13:44:41.654Z,1.47
2022-12-18T13:46:03.406Z,1.43
2022-12-18T13:47:07.120Z,1.42
2022-12-18T13:48:26.146Z,1.45
2022-12-18T13:49:41.353Z,1.42
2022-12-18T13:50:44.716Z,1.37
2022-12-18T13:51:54.198Z,1.36
2022-12-18T13:52:57.471Z,1.32
2022-12-18T13:54:15.186Z,1.29
2022-12-18T13:55:21.304Z,1.28
2022-12-18T13:56:33.373Z,1.23
2022-12-18T13:57:42.250Z,1.21
2022-12-18T13:58:45.289Z,1.17
2022-12-18T13:59:48.577Z,1.14
2022-12-18T14:00:51.648Z,1.14
2022-12-18T14:01:57.206Z,1.10
2022-12-18T14:03:01.336Z,1.10
2022-12-18T14:04:22.425Z,1.07
2022-12-18T14:05:34.130Z,1.05
2022-12-18T14:06:38.513Z,1.03
2022-12-18T14:07:43.319Z,1.01
2022-12-18T14:08:51.455Z,0.98
2022-12-18T14:10:12.576Z,0.96
2022-12-18T14:11:26.841Z,0.91
2022-12-18T14:12:55.012Z,0.85
2022-12-18T14:13:58.305Z,0.79
2022-12-18T14:15:01.650Z,0.73
2022-12-18T14:16:06.829Z,0.69
2022-12-18T14:17:13.695Z,0.66
2022-12-18T14:18:34.489Z,0.63
2022-12-18T14:19:37.632Z,0.61
2022-12-18T14:20:52.556Z,0.53
2022-12-18T14:21:57.239Z,0.47
2022-12-18T14:23:01.471Z,0.44
2022-12-18T14:24:22.016Z,0.41
2022-12-18T14:25:27.202Z,0.36
2022-12-18T14:26:32.561Z,0.34
2022-12-18T14:27:42.701Z,0.31
2022-12-18T14:28:45.927Z,0.30
2022-12-18T14:29:48.801Z,0.24
2022-12-18T14:30:51.934Z,0.21
2022-12-18T14:32:19.079Z,0.21
2022-12-18T14:33:29.414Z,0.13
2022-12-18T14:34:32.791Z,0.11
2022-12-18T14:35:39.116Z,0.08
2022-12-18T14:36:42.747Z,0.02
2022-12-18T14:37:46.054Z,0.00
2022-12-18T14:38:55.195Z,-0.03
2022-12-18T14:40:10.551Z,-0.09
2022-12-18T14:41:16.670Z,-0.15
2022-12-18T14:42:20.100Z,-0.17
2022-12-18T14:43:23.683Z,-0.17
2022-12-18T14:44:34.517Z,-0.20
2022-12-18T14:45:47.368Z,-0.24
2022-12-18T14:46:52.795Z,-0.29
2022-12-18T14:47:56.770Z,-0.31
2022-12-18T14:49:19.293Z,-0.34
2022-12-18T14:50:22.209Z,-0.37
2022-12-18T14:51:31.521Z,-0.39
2022-12-18T14:52:34.838Z,-0.44
2022-12-18T14:53:52.111Z,-0.46
2022-12-18T14:54:57.305Z,-0.52